Chewelah, Washington
Current Conditions -  °F | °C
As of 11:24 PM on Wednesday 17 Dec 2014 (Local Time) from KDEW Reporting Station
Overcast Overcast  
Wind Chill: 34°   Ceiling: 2300
Heat Index: 34°   Visibility: 9mi
Dew Point: 32°   Wind: 0mph
Humidity: 92%   Direction: NA
Pressure: 29.97"   Gusts: NA
Location:  48.28°N, 117.72°W
Report Text: KDEW 180724Z AUTO 00000KT 9SM BKN023 OVC030 01/00 A2997 RMK AO2 T00110000
Loading
Personal Weather Stations






























Interactive Weather Map New forecast layout! Learn more

10-Day Weather Forecast

Advertisements
Track Severe Weather on mobile